createdAt,value
2023-04-20T00:01:36.483Z,1.00
2023-04-20T00:04:08.234Z,1.00
2023-04-20T00:06:39.083Z,1.00
2023-04-20T00:09:10.991Z,1.00
2023-04-20T00:11:42.196Z,1.00
2023-04-20T00:14:18.974Z,1.00
2023-04-20T00:16:49.881Z,1.00
2023-04-20T00:19:21.320Z,1.00
2023-04-20T00:21:53.125Z,1.00
2023-04-20T00:24:24.082Z,1.00
2023-04-20T00:26:55.251Z,1.00
2023-04-20T00:29:28.776Z,1.00
2023-04-20T00:31:59.825Z,1.00
2023-04-20T00:34:30.823Z,1.00
2023-04-20T00:37:04.884Z,1.00
2023-04-20T00:39:35.962Z,1.00
2023-04-20T00:42:08.011Z,1.00
2023-04-20T00:44:41.688Z,1.00
2023-04-20T00:47:12.635Z,1.00
2023-04-20T00:49:43.757Z,1.00
2023-04-20T00:52:14.820Z,1.00
2023-04-20T00:54:45.778Z,1.00
2023-04-20T00:57:17.819Z,1.00
2023-04-20T00:59:51.899Z,1.00
2023-04-20T01:02:22.918Z,1.00
2023-04-20T01:04:53.962Z,1.00
2023-04-20T01:07:24.871Z,1.00
2023-04-20T01:09:55.819Z,1.00
2023-04-20T01:12:26.974Z,1.00
2023-04-20T01:15:00.944Z,1.00
2023-04-20T01:17:31.881Z,1.00
2023-04-20T01:20:02.932Z,1.00
2023-04-20T01:22:36.609Z,1.00
2023-04-20T01:25:08.939Z,1.00
2023-04-20T01:27:40.259Z,1.00
2023-04-20T01:30:17.427Z,1.00
2023-04-20T01:36:30.260Z,1.00
2023-04-20T01:39:03.902Z,1.00
2023-04-20T01:41:34.856Z,1.00
2023-04-20T01:44:05.862Z,1.00
2023-04-20T01:46:39.509Z,1.00
2023-04-20T01:49:11.113Z,1.00
2023-04-20T01:51:44.090Z,1.00
2023-04-20T01:54:19.753Z,1.00
2023-04-20T01:56:50.975Z,1.00
2023-04-20T01:59:24.866Z,1.00
2023-04-20T02:01:56.858Z,1.00
2023-04-20T02:04:28.079Z,1.00
2023-04-20T02:06:59.109Z,1.00
2023-04-20T02:09:32.639Z,1.00
2023-04-20T02:12:03.554Z,1.00
2023-04-20T02:14:34.540Z,1.00
2023-04-20T02:17:05.516Z,1.00
2023-04-20T02:19:36.451Z,1.00
2023-04-20T02:22:07.439Z,1.00
2023-04-20T02:24:41.570Z,1.00
2023-04-20T02:27:12.748Z,1.00
2023-04-20T02:29:43.917Z,1.00
2023-04-20T02:32:14.764Z,1.00
2023-04-20T02:34:45.681Z,1.00
2023-04-20T02:37:19.672Z,1.00
2023-04-20T02:39:55.228Z,1.00
2023-04-20T02:42:26.225Z,1.00
2023-04-20T02:44:57.311Z,1.00
2023-04-20T02:47:28.698Z,1.00
2023-04-20T02:49:59.837Z,1.00
2023-04-20T02:52:30.715Z,1.00
2023-04-20T02:55:04.211Z,1.00
2023-04-20T02:57:35.555Z,1.00
2023-04-20T03:00:08.923Z,1.00
2023-04-20T03:02:40.001Z,1.00
2023-04-20T03:05:12.404Z,1.00
2023-04-20T03:08:26.629Z,1.00
2023-04-20T03:11:00.054Z,1.00
2023-04-20T03:13:30.948Z,1.00
2023-04-20T03:16:01.986Z,1.00
2023-04-20T03:18:32.897Z,1.00
2023-04-20T03:21:04.156Z,1.00
2023-04-20T03:23:35.106Z,1.00
2023-04-20T03:26:08.827Z,1.00
2023-04-20T03:28:40.188Z,1.00
2023-04-20T03:31:11.375Z,1.00
2023-04-20T03:33:42.306Z,1.00
2023-04-20T03:36:14.082Z,1.00
2023-04-20T03:38:44.938Z,1.00
2023-04-20T03:41:18.464Z,1.00
2023-04-20T03:43:49.273Z,1.00
2023-04-20T03:46:22.022Z,1.30
2023-04-20T03:48:54.086Z,2.20
2023-04-20T03:51:25.041Z,2.70
2023-04-20T03:53:55.964Z,3.40
2023-04-20T03:56:29.714Z,4.10
2023-04-20T03:59:00.980Z,3.70
2023-04-20T04:01:31.979Z,4.70
2023-04-20T04:04:03.071Z,4.70
2023-04-20T04:06:34.336Z,4.80
2023-04-20T04:09:05.412Z,4.60
2023-04-20T04:11:38.918Z,4.80
2023-04-20T04:14:09.870Z,4.70
2023-04-20T04:16:40.971Z,4.80
2023-04-20T04:19:14.854Z,4.80
2023-04-20T04:21:46.096Z,4.80
2023-04-20T04:24:17.659Z,4.90
2023-04-20T04:26:51.650Z,4.80
2023-04-20T04:29:22.548Z,4.80
2023-04-20T04:31:53.903Z,4.80
2023-04-20T04:34:29.930Z,4.90
2023-04-20T04:37:01.290Z,4.90
2023-04-20T04:39:32.886Z,4.80
2023-04-20T04:42:07.206Z,4.80
2023-04-20T04:44:40.396Z,4.90
2023-04-20T04:47:11.964Z,4.90
2023-04-20T04:49:46.281Z,5.00
2023-04-20T04:52:21.946Z,4.90
2023-04-20T04:54:52.995Z,4.80
2023-04-20T04:57:26.799Z,5.50
2023-04-20T04:59:58.056Z,5.70
2023-04-20T05:02:29.431Z,5.40
2023-04-20T05:05:00.657Z,5.00
2023-04-20T05:07:32.039Z,5.20
2023-04-20T05:10:03.004Z,5.70
2023-04-20T05:12:37.038Z,5.80
2023-04-20T05:15:08.778Z,6.00
2023-04-20T05:17:39.682Z,6.00
2023-04-20T05:20:12.516Z,5.80
2023-04-20T05:22:43.549Z,6.00
2023-04-20T05:25:14.784Z,6.40
2023-04-20T05:27:48.292Z,6.80
2023-04-20T05:30:21.706Z,7.80
2023-04-20T05:32:53.616Z,10.50
2023-04-20T05:35:44.617Z,13.50
2023-04-20T05:38:24.781Z,15.20
2023-04-20T05:40:56.373Z,17.70
2023-04-20T05:43:30.022Z,19.90
2023-04-20T05:46:01.434Z,21.80
2023-04-20T05:48:32.434Z,21.80
2023-04-20T05:51:03.773Z,23.00
2023-04-20T05:53:34.728Z,25.10
2023-04-20T05:56:05.846Z,26.20
2023-04-20T05:58:40.387Z,29.10
2023-04-20T06:01:11.737Z,38.70
2023-04-20T06:03:42.811Z,40.40
2023-04-20T06:06:16.640Z,40.80
2023-04-20T06:08:48.271Z,39.00
2023-04-20T06:11:19.426Z,40.60
2023-04-20T06:13:53.159Z,40.70
2023-04-20T06:16:24.143Z,42.50
2023-04-20T06:18:55.038Z,45.80
2023-04-20T06:21:27.412Z,45.80
2023-04-20T06:23:58.372Z,47.60
2023-04-20T06:26:29.466Z,52.60
2023-04-20T06:29:03.382Z,58.60
2023-04-20T06:31:34.305Z,63.20
2023-04-20T06:34:05.492Z,72.80
2023-04-20T06:36:36.682Z,71.40
2023-04-20T06:39:07.849Z,66.70
2023-04-20T06:41:39.259Z,65.20
2023-04-20T06:44:13.461Z,65.70
2023-04-20T06:46:44.600Z,68.10
2023-04-20T06:49:15.731Z,68.30
2023-04-20T06:51:46.787Z,66.30
2023-04-20T06:54:17.679Z,63.90
2023-04-20T06:56:48.861Z,56.80
2023-04-20T06:59:22.511Z,58.30
2023-04-20T07:01:53.603Z,50.80
2023-04-20T07:04:24.915Z,43.90
2023-04-20T07:06:56.320Z,42.50
2023-04-20T07:09:27.362Z,44.20
2023-04-20T07:11:59.228Z,41.00
2023-04-20T07:14:32.794Z,41.90
2023-04-20T07:17:03.708Z,39.90
2023-04-20T07:19:35.801Z,41.10
2023-04-20T07:22:06.742Z,41.10
2023-04-20T07:24:37.690Z,40.60
2023-04-20T07:27:09.001Z,41.00
2023-04-20T07:29:42.599Z,41.10
2023-04-20T07:32:14.698Z,40.80
2023-04-20T07:34:45.815Z,40.30
2023-04-20T07:37:16.919Z,38.50
2023-04-20T07:39:47.852Z,38.80
2023-04-20T07:42:18.887Z,38.50
2023-04-20T07:44:52.369Z,38.20
2023-04-20T07:47:23.391Z,37.40
2023-04-20T07:49:54.877Z,36.60
2023-04-20T07:52:25.924Z,37.90
2023-04-20T07:54:58.184Z,36.70
2023-04-20T07:57:32.375Z,36.60
2023-04-20T08:00:08.950Z,36.60
2023-04-20T08:02:39.990Z,37.30
2023-04-20T08:05:12.917Z,38.00
2023-04-20T08:07:44.343Z,36.80
2023-04-20T08:10:15.588Z,36.10
2023-04-20T08:12:47.216Z,37.90
2023-04-20T08:15:20.959Z,38.60
2023-04-20T08:17:53.154Z,38.50
2023-04-20T08:20:24.224Z,40.70
2023-04-20T08:22:55.518Z,41.70
2023-04-20T08:25:27.319Z,45.40
2023-04-20T08:27:58.374Z,50.00
2023-04-20T08:30:32.669Z,68.10
2023-04-20T08:33:03.826Z,92.60
2023-04-20T08:35:34.956Z,99.90
2023-04-20T08:38:06.038Z,99.90
2023-04-20T08:40:39.790Z,99.90
2023-04-20T08:43:10.809Z,99.90
2023-04-20T08:45:47.292Z,99.90
2023-04-20T08:48:20.137Z,99.90
2023-04-20T08:50:51.451Z,85.20
2023-04-20T08:53:22.884Z,69.80
2023-04-20T08:55:56.894Z,77.50
2023-04-20T08:58:28.427Z,79.70
2023-04-20T09:01:02.171Z,86.40
2023-04-20T09:03:37.710Z,71.00
2023-04-20T09:06:10.179Z,69.50
2023-04-20T09:08:42.790Z,67.10
2023-04-20T09:11:24.357Z,54.70
2023-04-20T09:14:02.863Z,73.70
2023-04-20T09:16:37.530Z,58.90
2023-04-20T09:19:09.700Z,52.10
2023-04-20T09:21:50.860Z,58.70
2023-04-20T09:24:22.824Z,55.60
2023-04-20T09:26:54.207Z,51.70
2023-04-20T09:29:26.812Z,51.70
2023-04-20T09:32:00.470Z,48.50
2023-04-20T09:34:31.858Z,48.60
2023-04-20T09:37:02.876Z,49.30
2023-04-20T09:39:36.905Z,47.90
2023-04-20T09:42:08.876Z,54.60
2023-04-20T09:44:43.501Z,55.50
2023-04-20T09:47:26.121Z,55.70
2023-04-20T09:50:00.123Z,55.00
2023-04-20T09:52:34.118Z,61.40
2023-04-20T09:55:05.836Z,66.70
2023-04-20T09:57:37.906Z,75.20
2023-04-20T10:00:10.982Z,50.70
2023-04-20T10:02:44.737Z,48.80
2023-04-20T10:05:16.166Z,58.10
2023-04-20T10:07:47.276Z,52.90
2023-04-20T10:10:19.544Z,54.60
2023-04-20T10:12:51.707Z,38.10
2023-04-20T10:15:24.276Z,45.30
2023-04-20T10:18:01.152Z,37.70
2023-04-20T10:20:32.379Z,28.20
2023-04-20T10:23:11.563Z,29.90
2023-04-20T10:25:43.015Z,33.80
2023-04-20T10:28:14.155Z,29.80
2023-04-20T10:30:54.694Z,30.40
2023-04-20T10:33:28.494Z,26.20
2023-04-20T10:35:59.584Z,27.00
2023-04-20T10:38:34.473Z,23.90
2023-04-20T10:41:12.501Z,26.60
2023-04-20T10:43:44.933Z,23.30
2023-04-20T10:46:24.404Z,20.60
2023-04-20T10:49:01.748Z,21.70
2023-04-20T10:51:33.449Z,21.70
2023-04-20T10:54:05.335Z,19.40
2023-04-20T10:56:43.941Z,19.80
2023-04-20T10:59:19.610Z,20.20
2023-04-20T11:01:51.467Z,19.40
2023-04-20T11:04:34.267Z,15.30
2023-04-20T11:07:10.076Z,15.80
2023-04-20T11:09:42.983Z,15.40
2023-04-20T11:12:16.380Z,14.40
2023-04-20T11:14:55.575Z,12.40
2023-04-20T11:17:35.492Z,10.80
2023-04-20T11:20:15.542Z,13.10
2023-04-20T11:22:47.547Z,11.00
2023-04-20T11:25:18.454Z,11.30
2023-04-20T11:27:49.442Z,9.10
2023-04-20T11:30:21.188Z,10.30
2023-04-20T11:32:57.388Z,7.20
2023-04-20T11:35:38.436Z,6.20
2023-04-20T11:38:09.716Z,3.80
2023-04-20T11:40:44.251Z,3.50
2023-04-20T11:43:15.656Z,6.10
2023-04-20T11:45:46.920Z,5.00
2023-04-20T11:48:18.736Z,2.80
2023-04-20T11:50:52.245Z,4.80
2023-04-20T11:53:23.196Z,5.70
2023-04-20T11:55:54.262Z,6.10
2023-04-20T11:58:25.407Z,5.30
2023-04-20T12:00:56.291Z,4.00
2023-04-20T12:03:27.511Z,3.90
2023-04-20T12:06:01.253Z,4.40
2023-04-20T12:08:32.254Z,1.00
2023-04-20T12:11:03.207Z,1.00
2023-04-20T12:13:34.100Z,1.00
2023-04-20T12:16:07.331Z,1.00
2023-04-20T12:18:38.296Z,1.00
2023-04-20T12:21:11.940Z,1.00
2023-04-20T12:23:44.022Z,1.00
2023-04-20T12:26:14.919Z,1.00
2023-04-20T12:28:45.872Z,1.00
2023-04-20T12:31:16.890Z,1.00
2023-04-20T12:33:47.906Z,1.00
2023-04-20T12:36:24.613Z,1.00
2023-04-20T12:38:56.239Z,1.00
2023-04-20T12:41:27.553Z,1.00
2023-04-20T12:43:58.629Z,1.00
2023-04-20T12:46:31.795Z,1.00
2023-04-20T12:49:06.344Z,1.00
2023-04-20T12:51:39.878Z,1.00
2023-04-20T12:54:12.088Z,1.00
2023-04-20T12:56:42.989Z,1.00
2023-04-20T12:59:14.528Z,1.00
2023-04-20T13:01:45.727Z,1.00
2023-04-20T13:04:17.237Z,1.00
2023-04-20T13:06:51.753Z,1.00
2023-04-20T13:09:27.118Z,1.00
2023-04-20T13:11:58.309Z,1.00
2023-04-20T13:14:29.665Z,1.00
2023-04-20T13:17:01.885Z,1.00
2023-04-20T13:19:34.226Z,1.00
2023-04-20T13:22:07.898Z,1.00
2023-04-20T13:24:38.855Z,1.00
2023-04-20T13:27:10.446Z,1.00
2023-04-20T13:29:41.566Z,1.00
2023-04-20T13:32:13.331Z,1.00
2023-04-20T13:34:44.500Z,1.00
2023-04-20T13:37:18.186Z,1.00
2023-04-20T13:39:51.029Z,1.00
2023-04-20T13:42:22.316Z,1.00
2023-04-20T13:44:54.150Z,1.00
2023-04-20T13:47:25.665Z,1.00
2023-04-20T13:49:56.831Z,1.00
2023-04-20T13:52:30.428Z,1.00
2023-04-20T13:55:01.370Z,1.00
2023-04-20T13:57:32.812Z,1.00
2023-04-20T14:00:05.093Z,1.00
2023-04-20T14:02:36.422Z,1.00
2023-04-20T14:05:11.023Z,1.00
2023-04-20T14:07:44.588Z,1.00
2023-04-20T14:10:15.785Z,1.00
2023-04-20T14:12:46.905Z,1.00
2023-04-20T14:15:17.948Z,1.00
2023-04-20T14:17:51.669Z,1.00
2023-04-20T14:20:23.441Z,1.00
2023-04-20T14:22:57.196Z,1.00
2023-04-20T14:25:28.242Z,1.00
2023-04-20T14:27:59.334Z,1.00
2023-04-20T14:30:30.454Z,1.00
2023-04-20T14:33:04.567Z,1.00
2023-04-20T14:35:35.794Z,1.00
2023-04-20T14:38:09.380Z,1.00
2023-04-20T14:40:40.658Z,1.00
2023-04-20T14:43:11.673Z,1.00
2023-04-20T14:45:44.883Z,1.00
2023-04-20T14:48:15.963Z,1.00
2023-04-20T14:50:46.877Z,1.00
2023-04-20T14:53:20.564Z,1.00
2023-04-20T14:55:51.688Z,1.00
2023-04-20T14:58:23.462Z,1.00
2023-04-20T15:00:57.817Z,1.00
2023-04-20T15:03:28.945Z,1.00
2023-04-20T15:06:03.725Z,1.00
2023-04-20T15:08:37.682Z,1.00
2023-04-20T15:11:09.034Z,1.00
2023-04-20T15:13:43.869Z,1.00
2023-04-20T15:16:15.029Z,1.00
2023-04-20T15:18:46.651Z,1.00
2023-04-20T15:21:17.568Z,1.00
2023-04-20T15:23:56.830Z,1.00
2023-04-20T15:26:27.936Z,1.00
2023-04-20T15:28:59.644Z,1.00
2023-04-20T15:31:30.862Z,1.00
2023-04-20T15:34:02.855Z,1.00
2023-04-20T15:36:33.960Z,1.00
2023-04-20T15:41:01.855Z,1.00
2023-04-20T15:43:09.354Z,1.00
2023-04-20T15:45:41.279Z,1.00
2023-04-20T15:48:14.046Z,1.00
2023-04-20T15:50:45.337Z,1.00
2023-04-20T15:53:25.382Z,1.00
2023-04-20T15:56:08.380Z,1.00
2023-04-20T15:58:40.301Z,1.00
2023-04-20T16:01:11.492Z,1.00
2023-04-20T16:03:44.011Z,1.00
2023-04-20T16:06:20.346Z,1.00
2023-04-20T16:08:54.832Z,1.00
2023-04-20T16:11:28.330Z,1.00
2023-04-20T16:13:59.650Z,1.00
2023-04-20T16:16:30.930Z,1.00
2023-04-20T16:19:01.949Z,1.00
2023-04-20T16:21:32.962Z,1.00
2023-04-20T16:24:03.878Z,1.00
2023-04-20T16:26:39.507Z,1.00
2023-04-20T16:29:11.924Z,1.00
2023-04-20T16:31:42.898Z,1.00
2023-04-20T16:34:14.013Z,1.00
2023-04-20T16:36:45.334Z,1.00
2023-04-20T16:39:19.880Z,1.00
2023-04-20T16:41:54.226Z,1.00
2023-04-20T16:44:25.754Z,1.00
2023-04-20T16:46:56.950Z,1.00
2023-04-20T16:49:28.082Z,1.00
2023-04-20T16:51:59.359Z,1.00
2023-04-20T16:54:30.628Z,1.00
2023-04-20T16:57:04.238Z,1.00
2023-04-20T16:59:35.242Z,1.00
2023-04-20T17:02:06.233Z,1.00
2023-04-20T17:04:37.438Z,1.00
2023-04-20T17:07:08.359Z,1.00
2023-04-20T17:09:39.352Z,1.00
2023-04-20T17:12:13.045Z,1.70
2023-04-20T17:14:44.131Z,3.60
2023-04-20T17:17:15.116Z,4.90
2023-04-20T17:19:46.250Z,5.50
2023-04-20T17:22:17.334Z,6.20
2023-04-20T17:24:48.370Z,8.30
2023-04-20T17:27:23.235Z,7.90
2023-04-20T17:29:56.028Z,11.30
2023-04-20T17:32:27.026Z,11.10
2023-04-20T17:34:58.861Z,15.10
2023-04-20T17:37:29.958Z,16.40
2023-04-20T17:40:01.722Z,16.00
2023-04-20T17:42:35.262Z,15.40
2023-04-20T17:45:10.316Z,15.40
2023-04-20T17:47:44.342Z,16.90
2023-04-20T17:50:16.684Z,16.30
2023-04-20T17:52:51.691Z,16.70
2023-04-20T17:55:22.913Z,16.80
2023-04-20T17:57:56.593Z,17.80
2023-04-20T18:00:27.851Z,19.10
2023-04-20T18:02:59.056Z,21.50
2023-04-20T18:05:31.137Z,21.70
2023-04-20T18:08:02.225Z,22.00
2023-04-20T18:10:34.162Z,21.10
2023-04-20T18:13:10.785Z,22.20
2023-04-20T18:15:42.420Z,20.70
2023-04-20T18:18:13.484Z,17.60
2023-04-20T18:20:44.489Z,21.10
2023-04-20T18:23:15.806Z,19.90
2023-04-20T18:25:46.842Z,19.80
2023-04-20T18:28:20.453Z,19.60
2023-04-20T18:30:51.509Z,20.80
2023-04-20T18:33:23.690Z,20.00
2023-04-20T18:35:54.789Z,20.70
2023-04-20T18:38:25.833Z,22.00
2023-04-20T18:40:56.796Z,22.60
2023-04-20T18:43:33.216Z,22.00
2023-04-20T18:46:04.132Z,22.10
2023-04-20T18:48:35.167Z,22.00
2023-04-20T18:51:06.494Z,22.30
2023-04-20T18:53:37.621Z,22.30
2023-04-20T18:56:10.199Z,22.20
2023-04-20T18:58:44.382Z,22.70
2023-04-20T19:01:15.400Z,21.70
2023-04-20T19:03:48.034Z,22.10
2023-04-20T19:06:19.203Z,22.80
2023-04-20T19:08:50.218Z,22.30
2023-04-20T19:11:21.143Z,21.50
2023-04-20T19:13:54.797Z,20.90
2023-04-20T19:16:25.853Z,20.30
2023-04-20T19:18:56.898Z,20.60
2023-04-20T19:21:27.893Z,22.10
2023-04-20T19:23:59.206Z,21.60
2023-04-20T19:26:30.223Z,20.50
2023-04-20T19:29:04.701Z,21.30
2023-04-20T19:31:37.985Z,21.10
2023-04-20T19:34:10.756Z,20.70
2023-04-20T19:36:42.277Z,19.90
2023-04-20T19:39:13.308Z,21.00
2023-04-20T19:41:44.249Z,20.40
2023-04-20T19:44:18.070Z,19.70
2023-04-20T19:46:50.041Z,20.30
2023-04-20T19:49:21.247Z,20.60
2023-04-20T19:51:52.344Z,21.30
2023-04-20T19:54:23.425Z,20.80
2023-04-20T19:56:54.537Z,20.50
2023-04-20T19:59:30.080Z,21.00
2023-04-20T20:02:01.161Z,21.10
2023-04-20T20:04:32.761Z,21.00
2023-04-20T20:07:04.107Z,20.00
2023-04-20T20:09:35.140Z,20.80
2023-04-20T20:12:08.604Z,21.20
2023-04-20T20:14:42.331Z,20.70
2023-04-20T20:17:16.401Z,21.10
2023-04-20T20:19:47.680Z,21.20
2023-04-20T20:22:24.859Z,21.30
2023-04-20T20:24:56.022Z,20.90
2023-04-20T20:27:27.217Z,21.00
2023-04-20T20:30:00.993Z,21.20
2023-04-20T20:32:31.977Z,20.70
2023-04-20T20:35:04.744Z,20.40
2023-04-20T20:37:36.076Z,20.80
2023-04-20T20:40:13.232Z,20.20
2023-04-20T20:42:45.305Z,20.30
2023-04-20T20:45:19.197Z,20.00
2023-04-20T20:47:50.148Z,21.10
2023-04-20T20:50:21.601Z,20.50
2023-04-20T20:52:52.646Z,20.70
2023-04-20T20:55:25.867Z,20.30
2023-04-20T20:57:56.906Z,20.50
2023-04-20T21:00:30.493Z,20.50
2023-04-20T21:03:01.591Z,21.60
2023-04-20T21:05:34.368Z,20.70
2023-04-20T21:08:06.526Z,20.40
2023-04-20T21:10:37.482Z,19.80
2023-04-20T21:13:08.557Z,20.40
2023-04-20T21:15:42.173Z,20.30
2023-04-20T21:18:13.961Z,19.50
2023-04-20T21:20:45.115Z,19.90
2023-04-20T21:23:18.694Z,20.20
2023-04-20T21:25:49.651Z,19.80
2023-04-20T21:28:20.806Z,19.90
2023-04-20T21:30:54.497Z,19.90
2023-04-20T21:33:27.564Z,20.30
2023-04-20T21:35:59.105Z,20.00
2023-04-20T21:38:30.322Z,20.30
2023-04-20T21:41:01.324Z,21.00
2023-04-20T21:43:32.450Z,19.90
2023-04-20T21:46:06.144Z,20.50
2023-04-20T21:48:37.132Z,20.10
2023-04-20T21:51:08.121Z,19.10
2023-04-20T21:53:39.863Z,20.30
2023-04-20T21:56:11.282Z,20.00
2023-04-20T21:58:42.198Z,20.00
2023-04-20T22:01:15.905Z,20.00
2023-04-20T22:03:47.840Z,20.20
2023-04-20T22:06:18.974Z,20.50
2023-04-20T22:08:49.911Z,19.50
2023-04-20T22:11:21.289Z,19.90
2023-04-20T22:13:52.269Z,20.00
2023-04-20T22:16:25.982Z,19.60
2023-04-20T22:18:57.230Z,19.90
2023-04-20T22:21:28.441Z,20.20
2023-04-20T22:23:59.661Z,19.80
2023-04-20T22:26:30.875Z,19.70
2023-04-20T22:29:02.421Z,21.00
2023-04-20T22:31:36.024Z,21.80
2023-04-20T22:34:07.024Z,20.60
2023-04-20T22:36:38.340Z,21.60
2023-04-20T22:39:09.366Z,22.70
2023-04-20T22:41:40.269Z,22.70
2023-04-20T22:44:11.369Z,23.30
2023-04-20T22:46:44.891Z,24.50
2023-04-20T22:49:16.130Z,25.10
2023-04-20T22:51:47.098Z,25.40
2023-04-20T22:54:18.265Z,27.10
2023-04-20T22:56:49.168Z,29.50
2023-04-20T22:59:20.395Z,31.80
2023-04-20T23:02:04.477Z,32.80
2023-04-20T23:04:38.562Z,34.30
2023-04-20T23:07:11.579Z,36.20
2023-04-20T23:09:51.449Z,45.70
2023-04-20T23:12:22.584Z,61.00
2023-04-20T23:15:00.664Z,87.90
2023-04-20T23:17:54.219Z,99.90
2023-04-20T23:20:29.303Z,99.90
2023-04-20T23:23:16.809Z,99.90
2023-04-20T23:25:55.649Z,99.90
2023-04-20T23:28:26.634Z,99.90
2023-04-20T23:30:57.536Z,99.90
2023-04-20T23:33:31.112Z,99.90
2023-04-20T23:36:02.264Z,99.90
2023-04-20T23:38:33.297Z,99.90
2023-04-20T23:41:04.234Z,99.90
2023-04-20T23:43:35.247Z,99.90
2023-04-20T23:46:08.465Z,99.90
2023-04-20T23:48:42.035Z,99.90
2023-04-20T23:51:13.169Z,99.90
2023-04-20T23:53:44.182Z,99.90
2023-04-20T23:56:15.353Z,99.90
2023-04-20T23:58:46.349Z,99.90
